International Virtual Aviation Organisation

Russian Federation and Kazakhstan MCD

 

Карточка аэропорта UAKK

Внимание!
Информация на этой странице в стадии наполнения.
Если вы не увидели какой-то информации, или заметили неточность - пожалуйста сообщите нам!
Спасибо!
Команда RU-STAFF
Название аэропортаКараганда
Название аэропорта (англ.)Karaganda
Превышение1768 ft. (538.9 m.)
Координаты49°40.302', 73°20.118'
Высота перехода10000
Эшелон переходаby ATC
Коды ответчика0630-0637, 7220-7227
Зона ОрВДНур-Султан РПИ (UACN)
Данные METARUAKK 281000Z 21010MPS 4500 -SHSN BLSN BKN031CB M04/M07 Q1018 R23/454045 NOSIG RMK QFE716/0955
Проноз погоды (TAF)UAKK 280500Z 2806/2906 14009MPS 3100 -SHSN DRSN SCT007 BKN015CB TXM03/2809Z TNM16/2824Z TEMPO 2806/2812 17014MPS 0500 +SHSN BLSN BKN003 OVC011CB BECMG 2812/2814 23010MPS TEMPO 2812/2818 25015MPS 0500 +SHSN BLSN BKN003 OVC015CB TEMPO 2818/2903 1000 SHSN BKN003 OVC011CB BECMG 2903/2905 30006MPS
NOTAMshow/hide NOTAM
AWOS   TABLE

Информация о ВПП

ВПП Длина ВПП (м.) Покрытие Курс ВПП Частота ILS
053601Железобетон50109.9
233601Железобетон230111.7

Диспетчерские позиции




Спутниковое изображение